Latest Coastal Weather Observations for Cairns

IDQ60701

Issued at 10:21 am EST Friday 27 May 2016 (issued every 10 minutes, with the page automatically refreshed every 10 minutes)

About coastal observations | Map of coastal stations | Coastal observations for QLD | Marine services | Other Formats
Station Details ID: 031011 Name: CAIRNS AERO Lat: -16.87 Lon: 145.75 Height: 2.22 m
Data from the previous 72 hours. | See also: Recent months at Cairns
Date/Time
EST
Temp

°C
Wind Pressure Rain
since 9am
mm
Weather Cloud Vis
km
Sea
Height
m
Swell
Dir
 
Speed
knots
Gust
knots
hPa Trend Height
m
Period
s
Dir
27/10:00am 27.9 WNW 4 6 1015.3 - 0.0 - Mostly clear 10 - - - -
27/09:30am 26.9 W 6 7 1015.6 - 0.0 - Mostly clear 10 - - - -
27/09:00am 26.2 SW 3 5 1015.6 F 0.0 - Mostly clear 10 - - - -
27/08:30am 24.7 SE 4 6 1015.4 - 0.0 - Mostly clear 10 - - - -
27/08:00am 24.4 SW 5 7 1015.2 - 0.0 - Mostly clear 10 - - - -
27/07:30am 22.5 WNW 2 5 1015.1 - 0.0 - Mostly clear 10 - - - -
27/07:00am 20.8 W 1 4 1015.0 - 0.0 - Mostly clear 10 - - - -
27/06:30am 20.4 CALM 0 0 1014.6 - 0.0 - - 10 - - - -
27/06:00am 20.5 CALM 0 0 1014.2 S 0.0 - - 10 - - - -
27/05:30am 20.4 CALM 0 0 1014.0 - 0.0 - - 10 - - - -
27/05:00am 20.5 NW 3 4 1013.8 - 0.0 - - 10 - - - -
27/04:30am 20.6 CALM 0 0 1013.9 - 0.0 - - 10 - - - -
27/04:00am 20.7 CALM 0 0 1013.8 - 0.0 - - 10 - - - -
27/03:30am 21.0 CALM 0 0 1013.8 - 0.0 - - 10 - - - -
27/03:00am 20.8 CALM 0 0 1013.9 R 0.0 - - 10 - - - -
27/02:30am 21.0 CALM 0 0 1014.0 - 0.0 - - 10 - - - -
27/02:00am 21.0 WSW 3 5 1014.0 - 0.0 - - 10 - - - -
27/01:30am 21.2 W 1 5 1014.1 - 0.0 - - 10 - - - -
27/01:00am 21.1 CALM 0 0 1014.2 - 0.0 - - 10 - - - -
27/12:30am 21.4 WNW 4 5 1014.2 - 0.0 - - 10 - - - -
27/12:00am 21.8 SSE 2 4 1014.4 F 0.0 - - 10 - - - -
 
Date/Time
EST
Temp

°C
Wind Pressure Rain
since 9am
mm
Weather Cloud Vis
km
Sea
Height
m
Swell
Dir
 
Speed
knots
Gust
knots
hPa Trend Height
m
Period
s
Dir
26/11:30pm 21.9 S 3 5 1014.5 - 0.0 - - 10 - - - -
26/11:00pm 22.0 W 5 5 1014.5 - 0.0 - - 10 - - - -
26/10:30pm 21.8 CALM 0 0 1014.5 - 0.0 - - 10 - - - -
26/10:00pm 22.0 CALM 0 0 1014.6 - 0.0 - - 10 - - - -
26/09:30pm 22.2 W 3 5 1014.7 - 0.0 - - 10 - - - -
26/09:00pm 22.5 CALM 0 0 1014.7 F 0.0 - - 10 - - - -
26/08:30pm 23.2 W 4 5 1014.7 - 0.0 - - 10 - - - -
26/08:00pm 23.7 WNW 4 5 1014.5 - 0.0 - - 10 - - - -
26/07:30pm 24.1 W 4 5 1014.2 - 0.0 - Mostly clear 10 - - - -
26/07:00pm 24.3 W 5 7 1013.8 - 0.0 - Mostly clear 10 - - - -
26/06:30pm 24.5 NNW 3 4 1013.6 - 0.0 - Mostly clear 10 - - - -
26/06:00pm 25.1 NE 5 7 1013.2 F 0.0 - Mostly clear 10 - - - -
26/05:30pm 25.6 NNE 6 9 1013.1 - 0.0 - Mostly clear 10 - - - -
26/05:00pm 26.5 NNE 7 8 1013.3 - 0.0 - Mostly clear 10 - - - -
26/04:30pm 27.1 NE 7 9 1013.3 - 0.0 - Mostly clear 10 - - - -
26/04:00pm 27.6 NE 6 8 1013.1 - 0.0 - Mostly clear 10 - - - -
26/03:30pm 27.7 NE 9 14 1013.3 - 0.0 - Mostly clear 10 - - - -
26/03:00pm 28.2 NE 9 13 1013.4 R 0.0 - Mostly clear 10 - - - -
26/02:30pm 29.0 ENE 8 11 1013.6 - 0.0 - Mostly clear 10 - - - -
26/02:00pm 28.8 NE 8 10 1013.7 - 0.0 - Mostly clear 10 - - - -
26/01:30pm 28.9 NE 7 10 1014.0 - 0.0 - Mostly clear 10 - - - -
26/01:00pm 28.9 NE 7 9 1014.4 - 0.0 - Mostly clear 10 - - - -
26/12:30pm 28.4 NE 7 9 1014.9 - 0.0 - Mostly clear 10 - - - -
26/12:00pm 28.7 S 4 7 1015.2 F 0.0 - Mostly clear 10 - - - -
26/11:30am 27.7 SSE 7 11 1015.6 - 0.0 - Mostly clear 10 - - - -
26/11:00am 28.1 SSE 9 13 1016.0 - 0.0 - Mostly clear 10 - - - -
26/10:30am 27.3 SSE 9 14 1016.4 - 0.0 - Mostly clear 10 - - - -
26/10:00am 26.6 SSE 9 14 1016.6 - 0.0 - Mostly clear 10 - - - -
26/09:30am 26.1 SSE 8 12 1016.8 - 0.0 - Mostly clear 10 - - - -
26/09:00am 25.5 SSE 7 11 1016.7 R 0.2 - Partly cloudy 10 - - - -
26/08:30am 24.9 S 8 14 1016.4 - 0.2 - Mostly clear 10 - - - -
26/08:00am 24.1 S 6 12 1016.1 - 0.2 - Mostly clear 10 - - - -
26/07:30am 22.5 SSE 8 11 1015.7 - 0.2 - Mostly clear 10 - - - -
26/07:00am 21.7 SW 2 6 1015.4 - 0.2 - Mostly clear 10 - - - -
26/06:30am 20.5 W 3 4 1015.2 - 0.2 - Mostly clear 10 - - - -
26/06:00am 21.2 SSE 2 6 1014.9 R 0.2 - Mostly clear 10 - - - -
26/05:30am 22.3 SSE 5 7 1014.4 - 0.2 - Mostly clear 10 - - - -
26/05:00am 21.5 ESE 8 9 1014.4 - 0.2 - Mostly clear 10 - - - -
26/04:30am 21.1 SE 9 9 1014.4 - 0.2 - Mostly clear 10 - - - -
26/04:00am 21.3 ESE 8 9 1014.5 - 0.2 - Mostly clear 10 - - - -
26/03:30am 21.5 ESE 8 9 1014.4 - 0.2 - Mostly clear 10 - - - -
26/03:00am 21.6 SE 6 9 1014.5 R 0.2 - Mostly clear 10 - - - -
26/02:30am 21.8 SE 8 10 1014.6 - 0.2 - Mostly clear 10 - - - -
26/02:00am 22.1 SE 8 9 1014.9 - 0.2 - Mostly clear 10 - - - -
26/01:30am 21.8 SSE 5 6 1015.4 - 0.2 - Mostly clear 10 - - - -
26/01:00am 22.2 ESE 5 6 1015.5 - 0.2 - Mostly clear 10 - - - -
26/12:30am 22.5 SSE 4 5 1015.6 - 0.2 - Mostly clear 10 - - - -
26/12:00am 23.4 SE 5 8 1015.8 R 0.2 - Partly cloudy 10 - - - -
 
Date/Time
EST
Temp

°C
Wind Pressure Rain
since 9am
mm
Weather Cloud Vis
km
Sea
Height
m
Swell
Dir
 
Speed
knots
Gust
knots
hPa Trend Height
m
Period
s
Dir
25/11:30pm 24.1 S 5 7 1015.9 - 0.2 - Mostly clear 10 - - - -
25/11:00pm 23.0 SE 4 6 1016.1 - 0.2 - Mostly clear 10 - - - -
25/10:30pm 22.8 SE 6 6 1016.3 - 0.2 - Mostly clear 10 - - - -
25/10:00pm 23.7 SE 7 8 1016.2 - 0.2 - Mostly clear 10 - - - -
25/09:30pm 24.2 SSE 6 9 1016.1 - 0.2 - Mostly clear 10 - - - -
25/09:00pm 24.4 S 7 9 1015.8 F 0.2 - Mostly cloudy 10 - - - -
25/08:30pm 24.7 SSW 6 10 1015.6 - 0.2 - Mostly clear 10 - - - -
25/08:00pm 24.6 S 7 11 1015.2 - 0.2 - Mostly clear 10 - - - -
25/07:30pm 24.3 S 6 8 1015.0 - 0.2 - Mostly clear 10 - - - -
25/07:00pm 24.4 SSE 7 10 1014.6 - 0.2 - Mostly clear 10 - - - -
25/06:30pm 24.2 SSE 6 8 1014.5 - 0.2 - Mostly clear 10 - - - -
25/06:00pm 24.5 SSE 3 5 1014.2 F 0.2 - Mostly cloudy 10 - - - -
25/05:30pm 25.6 SE 9 13 1013.8 - 0.2 - Mostly clear 10 - - - -
25/05:00pm 26.3 SE 9 12 1013.7 - 0.2 - Mostly clear 10 - - - -
25/04:30pm 27.1 ESE 8 11 1013.4 - 0.2 - Mostly clear 10 - - - -
25/04:00pm 27.6 ESE 9 12 1013.2 - 0.2 - Mostly clear 10 - - - -
25/03:30pm 27.8 ESE 9 12 1013.1 - 0.2 - Mostly clear 10 - - - -
25/03:00pm 28.3 E 9 13 1013.4 R 0.2 - Mostly clear 10 - - - -
25/02:30pm 28.5 E 9 13 1013.5 - 0.2 - Mostly clear 10 - - - -
25/02:00pm 28.2 SE 9 13 1013.6 - 0.2 - Mostly clear 10 - - - -
25/01:30pm 28.1 SE 10 13 1013.9 - 0.2 - Mostly clear 10 - - - -
25/01:00pm 28.1 ESE 10 14 1014.3 - 0.2 - Mostly clear 10 - - - -
25/12:30pm 27.9 ESE 9 14 1014.9 - 0.2 - Partly cloudy 10 - - - -
25/12:00pm 27.5 SSE 9 13 1015.1 F 0.2 Fine Partly cloudy 10 - - - -
25/11:30am 26.9 SSE 9 11 1015.6 - 0.2 - Mostly clear 10 - - - -
25/11:00am 25.6 SSE 6 9 1015.9 - 0.2 - Mostly clear 10 - - - -
25/10:30am 25.5 SE 6 7 1016.3 - 0.2 - Partly cloudy 10 - - - -
25/10:00am 24.5 SE 8 10 1016.1 - 0.2 - Mostly clear 10 - - - -
25/09:30am 24.4 SSE 9 16 1015.8 - 0.2 - Mostly clear 10 - - - -
25/09:00am 23.9 SSE 9 12 1016.1 F 0.6 Fine Mostly clear 10 - - - -
25/08:30am 23.4 SE 8 9 1016.0 - 0.6 - Mostly clear 10 - - - -
25/08:00am 23.6 SE 5 7 1015.6 - 0.6 - Mostly clear 10 - - - -
25/07:30am 24.0 SSE 5 8 1015.7 - 0.6 - Mostly clear 10 - - - -
25/07:00am 22.6 S 5 7 1015.2 - 0.6 - Mostly clear 10 - - - -
25/06:30am 22.2 SE 7 9 1014.6 - 0.6 - Mostly clear 10 - - - -
25/06:00am 22.5 SSE 6 9 1014.8 F 0.6 - Cloudy 10 - - - -
25/05:30am 22.2 SE 10 14 1014.0 - 0.6 - Mostly clear 10 - - - -
25/05:00am 22.3 SSE 6 9 1014.0 - 0.6 - Mostly clear 10 - - - -
25/04:30am 22.1 ESE 9 10 1014.3 - 0.6 - Mostly clear 10 - - - -
25/04:00am 23.7 SSE 7 10 1014.2 - 0.6 - Mostly clear 10 - - - -
25/03:30am 22.5 SE 10 12 1014.0 - 0.6 - Mostly clear 10 - - - -
25/03:00am 23.3 SSE 8 12 1014.6 F 0.6 - Mostly cloudy 10 - - - -
25/02:30am 22.1 SE 10 13 1014.9 - 0.6 - Mostly clear 10 - - - -
25/02:00am 23.3 S 10 15 1015.5 - 0.6 - Mostly clear 10 - - - -
25/01:30am 22.9 S 11 15 1016.1 - 0.6 - Mostly clear 10 - - - -
25/01:00am 23.0 S 11 15 1016.4 - 0.6 - Mostly clear 10 - - - -
25/12:30am 23.0 S 9 15 1016.2 - 0.6 - Mostly clear 10 - - - -
25/12:00am 22.5 SSE 7 11 1016.7 R 0.6 Showers Cloudy 10 - - - -
 
Date/Time
EST
Temp

°C
Wind Pressure Rain
since 9am
mm
Weather Cloud Vis
km
Sea
Height
m
Swell
Dir
 
Speed
knots
Gust
knots
hPa Trend Height
m
Period
s
Dir
24/11:30pm 22.9 SSE 9 13 1016.6 - 0.6 - Mostly clear 10 - - - -
24/11:00pm 23.3 S 9 15 1016.5 - 0.6 - Mostly clear 10 - - - -
24/10:30pm 22.6 SE 8 10 1016.8 - 0.4 Showers Mostly clear 9 - - - -
24/10:00pm 23.4 S 9 14 1016.3 - 0.2 - Mostly clear 10 - - - -
24/09:30pm 22.4 SE 12 15 1016.5 - 0.2 Showers Partly cloudy 10 - - - -
24/09:00pm 24.2 S 7 11 1016.7 R 0.2 - Cloudy 10 - - - -
24/08:30pm 23.8 SSE 8 11 1016.3 - 0.2 - Mostly clear 10 - - - -
24/08:00pm 23.7 SSE 7 10 1016.0 - 0.2 - Partly cloudy 10 - - - -
24/07:30pm 23.8 SSE 8 11 1015.5 - 0.2 - Mostly clear 10 - - - -
24/07:00pm 23.6 SSE 6 9 1015.1 - 0.2 - Mostly clear 10 - - - -
24/06:30pm 23.8 SSE 8 11 1014.8 - 0.2 - Mostly clear 10 - - - -
24/06:00pm 24.3 SSE 6 8 1014.8 F 0.2 - Cloudy 10 - - - -
24/05:30pm 24.6 SSE 6 10 1014.5 - 0.2 - Mostly clear 10 - - - -
24/05:00pm 24.7 SSE 5 8 1014.4 - 0.2 - Mostly clear 10 - - - -
24/04:30pm 25.0 SSE 9 14 1014.1 - 0.2 - Mostly clear 10 - - - -
24/04:00pm 25.1 SSE 13 18 1014.2 - 0.2 - Mostly clear 10 - - - -
24/03:30pm 25.0 SSE 9 14 1014.2 - 0.2 - Mostly clear 10 - - - -
24/03:00pm 24.7 SE 10 13 1014.1 R 0.2 Recent precip. Cloudy 10 - - - -
24/02:30pm 25.2 ESE 11 15 1014.6 - 0.2 Showers Partly cloudy 10 - - - -
24/02:00pm 25.5 ESE 10 14 1014.5 - 0.2 - Mostly clear 10 - - - -
24/01:30pm 26.3 ESE 8 14 1014.4 - 0.2 Showers Mostly clear 10 - - - -
24/01:00pm 25.2 E 10 16 1015.0 - 0.0 - Mostly clear 10 - - - -
24/12:30pm 26.2 SE 10 14 1015.5 - 0.0 - Partly cloudy 10 - - - -
24/12:00pm 25.9 SSE 7 10 1015.7 S 0.0 - Cloudy 10 - - - -
24/11:30am 25.5 SSE 8 13 1016.3 - 0.0 - Mostly clear 10 - - - -
24/11:00am 25.5 SSE 6 8 1016.5 - 0.0 - Mostly clear 10 - - - -
24/10:30am 24.9 SSE 7 10 1016.8 - 0.0 Showers Mostly clear 10 - - - -

Other Formats:

Comma delimited format used in spreadsheet applications
http://www.bom.gov.au/fwo/IDQ60701/IDQ60701.94287.axf

JavaScript Object Notation format (JSON) in row-major order
http://www.bom.gov.au/fwo/IDQ60701/IDQ60701.94287.json